sensor_id;sensor_type;location;lat;lon;timestamp;pressure;altitude;pressure_sealevel;temperature
50206;BMP280;36098;48.390;10.856;2024-02-23T00:01:53;94063.78;;;17.07
50206;BMP280;36098;48.390;10.856;2024-02-23T00:04:19;94062.22;;;17.06
50206;BMP280;36098;48.390;10.856;2024-02-23T00:06:44;94070.84;;;17.07
50206;BMP280;36098;48.390;10.856;2024-02-23T00:09:10;94080.22;;;17.08
50206;BMP280;36098;48.390;10.856;2024-02-23T00:11:35;94084.66;;;17.07
50206;BMP280;36098;48.390;10.856;2024-02-23T00:14:05;94087.25;;;17.07
50206;BMP280;36098;48.390;10.856;2024-02-23T00:16:30;94088.03;;;17.08
50206;BMP280;36098;48.390;10.856;2024-02-23T00:18:55;94102.91;;;17.07
50206;BMP280;36098;48.390;10.856;2024-02-23T00:21:20;94097.69;;;17.07
50206;BMP280;36098;48.390;10.856;2024-02-23T00:23:46;94101.34;;;17.06
50206;BMP280;36098;48.390;10.856;2024-02-23T00:26:12;94120.09;;;17.08
50206;BMP280;36098;48.390;10.856;2024-02-23T00:28:37;94133.44;;;17.07
50206;BMP280;36098;48.390;10.856;2024-02-23T00:31:03;94128.22;;;17.07
50206;BMP280;36098;48.390;10.856;2024-02-23T00:33:28;94130.31;;;17.05
50206;BMP280;36098;48.390;10.856;2024-02-23T00:35:53;94140.47;;;17.06
50206;BMP280;36098;48.390;10.856;2024-02-23T00:38:18;94136.28;;;17.05
50206;BMP280;36098;48.390;10.856;2024-02-23T00:40:44;94143.56;;;17.08
50206;BMP280;36098;48.390;10.856;2024-02-23T00:43:09;94139.41;;;17.07
50206;BMP280;36098;48.390;10.856;2024-02-23T00:45:35;94144.63;;;17.07
50206;BMP280;36098;48.390;10.856;2024-02-23T00:48:00;94153.50;;;17.06
50206;BMP280;36098;48.390;10.856;2024-02-23T00:50:26;94152.44;;;17.07
50206;BMP280;36098;48.390;10.856;2024-02-23T00:52:52;94160.25;;;17.07
50206;BMP280;36098;48.390;10.856;2024-02-23T00:55:18;94162.88;;;17.07
50206;BMP280;36098;48.390;10.856;2024-02-23T00:57:43;94160.25;;;17.07
50206;BMP280;36098;48.390;10.856;2024-02-23T01:00:10;94166.25;;;17.08
50206;BMP280;36098;48.390;10.856;2024-02-23T01:02:36;94165.47;;;17.07
50206;BMP280;36098;48.390;10.856;2024-02-23T01:05:02;94178.50;;;17.07
50206;BMP280;36098;48.390;10.856;2024-02-23T01:07:27;94182.97;;;17.07
50206;BMP280;36098;48.390;10.856;2024-02-23T01:09:53;94184.78;;;17.06
50206;BMP280;36098;48.390;10.856;2024-02-23T01:12:18;94186.88;;;17.04
50206;BMP280;36098;48.390;10.856;2024-02-23T01:14:43;94181.69;;;17.04
50206;BMP280;36098;48.390;10.856;2024-02-23T01:17:09;94178.56;;;17.02
50206;BMP280;36098;48.390;10.856;2024-02-23T01:19:34;94185.34;;;17.03
50206;BMP280;36098;48.390;10.856;2024-02-23T01:21:59;94190.28;;;17.05
50206;BMP280;36098;48.390;10.856;2024-02-23T01:24:28;94200.97;;;17.03
50206;BMP280;36098;48.390;10.856;2024-02-23T01:26:55;94198.38;;;17.03
50206;BMP280;36098;48.390;10.856;2024-02-23T01:29:20;94208.81;;;17.03
50206;BMP280;36098;48.390;10.856;2024-02-23T01:31:46;94204.66;;;17.02
50206;BMP280;36098;48.390;10.856;2024-02-23T01:34:11;94210.66;;;17.03
50206;BMP280;36098;48.390;10.856;2024-02-23T01:36:36;94212.47;;;17.02
50206;BMP280;36098;48.390;10.856;2024-02-23T01:39:02;94220.28;;;17.02
50206;BMP280;36098;48.390;10.856;2024-02-23T01:41:27;94215.06;;;17.02
50206;BMP280;36098;48.390;10.856;2024-02-23T01:43:52;94218.72;;;17.01
50206;BMP280;36098;48.390;10.856;2024-02-23T01:46:18;94218.72;;;17.01
50206;BMP280;36098;48.390;10.856;2024-02-23T01:48:45;94216.13;;;17.01
50206;BMP280;36098;48.390;10.856;2024-02-23T01:51:11;94219.53;;;17.02
50206;BMP280;36098;48.390;10.856;2024-02-23T01:53:36;94229.44;;;17.00
50206;BMP280;36098;48.390;10.856;2024-02-23T01:56:03;94226.84;;;17.00
50206;BMP280;36098;48.390;10.856;2024-02-23T01:58:29;94231.28;;;16.99
50206;BMP280;36098;48.390;10.856;2024-02-23T02:00:55;94236.47;;;16.99
50206;BMP280;36098;48.390;10.856;2024-02-23T02:03:20;94264.13;;;17.00
50206;BMP280;36098;48.390;10.856;2024-02-23T02:05:45;94260.75;;;17.00
50206;BMP280;36098;48.390;10.856;2024-02-23T02:08:11;94260.22;;;16.98
50206;BMP280;36098;48.390;10.856;2024-02-23T02:10:36;94261.78;;;16.99
50206;BMP280;36098;48.390;10.856;2024-02-23T02:13:05;94273.00;;;16.99
50206;BMP280;36098;48.390;10.856;2024-02-23T02:15:30;94281.59;;;17.00
50206;BMP280;36098;48.390;10.856;2024-02-23T02:17:56;94292.03;;;17.00
50206;BMP280;36098;48.390;10.856;2024-02-23T02:20:24;94293.84;;;16.99
50206;BMP280;36098;48.390;10.856;2024-02-23T02:22:50;94294.09;;;16.98
50206;BMP280;36098;48.390;10.856;2024-02-23T02:25:15;94301.94;;;16.98
50206;BMP280;36098;48.390;10.856;2024-02-23T02:27:41;94296.72;;;16.98
50206;BMP280;36098;48.390;10.856;2024-02-23T02:30:06;94310.53;;;16.98
50206;BMP280;36098;48.390;10.856;2024-02-23T02:32:32;94310.28;;;16.95
50206;BMP280;36098;48.390;10.856;2024-02-23T02:34:57;94314.19;;;16.97
50206;BMP280;36098;48.390;10.856;2024-02-23T02:37:22;94310.81;;;16.97
50206;BMP280;36098;48.390;10.856;2024-02-23T02:39:48;94316.81;;;16.97
50206;BMP280;36098;48.390;10.856;2024-02-23T02:42:13;94316.81;;;16.97
50206;BMP280;36098;48.390;10.856;2024-02-23T02:44:38;94310.81;;;16.97
50206;BMP280;36098;48.390;10.856;2024-02-23T02:47:04;94307.44;;;16.96
50206;BMP280;36098;48.390;10.856;2024-02-23T02:49:29;94319.66;;;16.96
50206;BMP280;36098;48.390;10.856;2024-02-23T02:51:54;94317.84;;;16.96
50206;BMP280;36098;48.390;10.856;2024-02-23T02:54:19;94313.69;;;16.95
50206;BMP280;36098;48.390;10.856;2024-02-23T02:56:47;94317.84;;;16.96
50206;BMP280;36098;48.390;10.856;2024-02-23T02:59:12;94332.72;;;16.96
50206;BMP280;36098;48.390;10.856;2024-02-23T03:01:38;94324.13;;;16.95
50206;BMP280;36098;48.390;10.856;2024-02-23T03:04:04;94327.50;;;16.96
50206;BMP280;36098;48.390;10.856;2024-02-23T03:06:29;94318.91;;;16.95
50206;BMP280;36098;48.390;10.856;2024-02-23T03:08:54;94304.31;;;16.94
50206;BMP280;36098;48.390;10.856;2024-02-23T03:11:19;94300.16;;;16.93
50206;BMP280;36098;48.390;10.856;2024-02-23T03:13:45;94307.97;;;16.93
50206;BMP280;36098;48.390;10.856;2024-02-23T03:16:17;94305.38;;;16.93
50206;BMP280;36098;48.390;10.856;2024-02-23T03:18:42;94287.88;;;16.94
50206;BMP280;36098;48.390;10.856;2024-02-23T03:21:08;94278.25;;;16.94
50206;BMP280;36098;48.390;10.856;2024-02-23T03:23:34;94288.16;;;16.92
50206;BMP280;36098;48.390;10.856;2024-02-23T03:26:03;94279.28;;;16.93
50206;BMP280;36098;48.390;10.856;2024-02-23T03:28:28;94285.56;;;16.92
50206;BMP280;36098;48.390;10.856;2024-02-23T03:30:53;94288.94;;;16.93
50206;BMP280;36098;48.390;10.856;2024-02-23T03:33:19;94285.28;;;16.94
50206;BMP280;36098;48.390;10.856;2024-02-23T03:35:44;94279.28;;;16.93
50206;BMP280;36098;48.390;10.856;2024-02-23T03:38:09;94296.50;;;16.94
50206;BMP280;36098;48.390;10.856;2024-02-23T03:40:35;94286.06;;;16.94
50206;BMP280;36098;48.390;10.856;2024-02-23T03:43:01;94282.66;;;16.94
50206;BMP280;36098;48.390;10.856;2024-02-23T03:45:27;94298.59;;;16.92
50206;BMP280;36098;48.390;10.856;2024-02-23T03:47:53;94284.50;;;16.93
50206;BMP280;36098;48.390;10.856;2024-02-23T03:50:19;94282.97;;;16.92
50206;BMP280;36098;48.390;10.856;2024-02-23T03:52:44;94274.63;;;16.90
50206;BMP280;36098;48.390;10.856;2024-02-23T03:55:09;94284.00;;;16.91
50206;BMP280;36098;48.390;10.856;2024-02-23T03:57:35;94286.63;;;16.91
50206;BMP280;36098;48.390;10.856;2024-02-23T04:00:00;94282.97;;;16.92
50206;BMP280;36098;48.390;10.856;2024-02-23T04:02:25;94297.81;;;16.92
50206;BMP280;36098;48.390;10.856;2024-02-23T04:04:50;94304.88;;;16.91
50206;BMP280;36098;48.390;10.856;2024-02-23T04:07:16;94306.69;;;16.91
50206;BMP280;36098;48.390;10.856;2024-02-23T04:09:41;94302.50;;;16.90
50206;BMP280;36098;48.390;10.856;2024-02-23T04:12:06;94311.13;;;16.90
50206;BMP280;36098;48.390;10.856;2024-02-23T04:14:34;94311.88;;;16.91
50206;BMP280;36098;48.390;10.856;2024-02-23T04:17:02;94316.34;;;16.90
50206;BMP280;36098;48.390;10.856;2024-02-23T04:19:30;94309.56;;;16.89
50206;BMP280;36098;48.390;10.856;2024-02-23T04:21:55;94306.97;;;16.89
50206;BMP280;36098;48.390;10.856;2024-02-23T04:24:21;94303.06;;;16.87
50206;BMP280;36098;48.390;10.856;2024-02-23T04:26:46;94309.03;;;16.87
50206;BMP280;36098;48.390;10.856;2024-02-23T04:29:11;94303.81;;;16.87
50206;BMP280;36098;48.390;10.856;2024-02-23T04:31:37;94306.44;;;16.87
50206;BMP280;36098;48.390;10.856;2024-02-23T04:34:03;94309.31;;;16.86
50206;BMP280;36098;48.390;10.856;2024-02-23T04:36:28;94306.97;;;16.84
50206;BMP280;36098;48.390;10.856;2024-02-23T04:38:53;94308.81;;;16.84
50206;BMP280;36098;48.390;10.856;2024-02-23T04:41:20;94308.53;;;16.85
50206;BMP280;36098;48.390;10.856;2024-02-23T04:43:46;94316.34;;;16.85
50206;BMP280;36098;48.390;10.856;2024-02-23T04:46:11;94299.16;;;16.84
50206;BMP280;36098;48.390;10.856;2024-02-23T04:48:37;94295.50;;;16.85
50206;BMP280;36098;48.390;10.856;2024-02-23T04:51:03;94304.88;;;16.86
50206;BMP280;36098;48.390;10.856;2024-02-23T04:53:28;94302.81;;;16.83
50206;BMP280;36098;48.390;10.856;2024-02-23T04:55:53;94312.97;;;16.85
50206;BMP280;36098;48.390;10.856;2024-02-23T04:58:19;94304.38;;;16.84
50206;BMP280;36098;48.390;10.856;2024-02-23T05:00:45;94305.41;;;16.83
50206;BMP280;36098;48.390;10.856;2024-02-23T05:03:11;94300.22;;;16.83
50206;BMP280;36098;48.390;10.856;2024-02-23T05:05:36;94289.78;;;16.83
50206;BMP280;36098;48.390;10.856;2024-02-23T05:08:01;94294.44;;;16.86
50206;BMP280;36098;48.390;10.856;2024-02-23T05:10:27;94287.69;;;16.85
50206;BMP280;36098;48.390;10.856;2024-02-23T05:12:53;94290.28;;;16.90
50206;BMP280;36098;48.390;10.856;2024-02-23T05:15:18;94290.28;;;16.90
50206;BMP280;36098;48.390;10.856;2024-02-23T05:17:44;94291.84;;;16.91
50206;BMP280;36098;48.390;10.856;2024-02-23T05:20:10;94304.06;;;16.91
50206;BMP280;36098;48.390;10.856;2024-02-23T05:22:39;94318.66;;;16.92
50206;BMP280;36098;48.390;10.856;2024-02-23T05:25:05;94319.47;;;16.92
50206;BMP280;36098;48.390;10.856;2024-02-23T05:27:31;94316.56;;;16.94
50206;BMP280;36098;48.390;10.856;2024-02-23T05:29:56;94317.84;;;16.96
50206;BMP280;36098;48.390;10.856;2024-02-23T05:32:21;94320.47;;;16.96
50206;BMP280;36098;48.390;10.856;2024-02-23T05:34:47;94320.47;;;16.96
50206;BMP280;36098;48.390;10.856;2024-02-23T05:37:16;94327.19;;;17.02
50206;BMP280;36098;48.390;10.856;2024-02-23T05:39:41;94320.94;;;17.03
50206;BMP280;36098;48.390;10.856;2024-02-23T05:42:07;94319.31;;;17.07
50206;BMP280;36098;48.390;10.856;2024-02-23T05:44:32;94312.03;;;17.09
50206;BMP280;36098;48.390;10.856;2024-02-23T05:46:58;94322.41;;;17.14
50206;BMP280;36098;48.390;10.856;2024-02-23T05:49:24;94324.47;;;17.17
50206;BMP280;36098;48.390;10.856;2024-02-23T05:51:50;94321.31;;;17.20
50206;BMP280;36098;48.390;10.856;2024-02-23T05:54:15;94329.66;;;17.22
50206;BMP280;36098;48.390;10.856;2024-02-23T05:56:40;94327.03;;;17.22
50206;BMP280;36098;48.390;10.856;2024-02-23T05:59:06;94331.72;;;17.25
50206;BMP280;36098;48.390;10.856;2024-02-23T06:01:31;94349.72;;;17.27
50206;BMP280;36098;48.390;10.856;2024-02-23T06:03:57;94359.88;;;17.28
50206;BMP280;36098;48.390;10.856;2024-02-23T06:06:22;94353.31;;;17.31
50206;BMP280;36098;48.390;10.856;2024-02-23T06:08:47;94346.00;;;17.33
50206;BMP280;36098;48.390;10.856;2024-02-23T06:11:14;94346.00;;;17.33
50206;BMP280;36098;48.390;10.856;2024-02-23T06:13:40;94338.19;;;17.33
50206;BMP280;36098;48.390;10.856;2024-02-23T06:16:09;94343.94;;;17.35
50206;BMP280;36098;48.390;10.856;2024-02-23T06:18:36;94351.50;;;17.36
50206;BMP280;36098;48.390;10.856;2024-02-23T06:21:10;94347.84;;;17.37
50206;BMP280;36098;48.390;10.856;2024-02-23T06:23:36;94353.06;;;17.37
50206;BMP280;36098;48.390;10.856;2024-02-23T06:26:02;94353.06;;;17.37
50206;BMP280;36098;48.390;10.856;2024-02-23T06:28:27;94356.41;;;17.38
50206;BMP280;36098;48.390;10.856;2024-02-23T06:30:53;94359.81;;;17.38
50206;BMP280;36098;48.390;10.856;2024-02-23T06:33:18;94358.78;;;17.39
50206;BMP280;36098;48.390;10.856;2024-02-23T06:35:44;94338.94;;;17.38
50206;BMP280;36098;48.390;10.856;2024-02-23T06:38:09;94343.91;;;17.40
50206;BMP280;36098;48.390;10.856;2024-02-23T06:40:34;94340.50;;;17.39
50206;BMP280;36098;48.390;10.856;2024-02-23T06:43:00;94345.72;;;17.39
50206;BMP280;36098;48.390;10.856;2024-02-23T06:45:25;94347.28;;;17.40
50206;BMP280;36098;48.390;10.856;2024-02-23T06:47:51;94337.63;;;17.41
50206;BMP280;36098;48.390;10.856;2024-02-23T06:50:16;94335.03;;;17.41
50206;BMP280;36098;48.390;10.856;2024-02-23T06:52:41;94336.84;;;17.40
50206;BMP280;36098;48.390;10.856;2024-02-23T06:55:07;94342.84;;;17.41
50206;BMP280;36098;48.390;10.856;2024-02-23T06:57:33;94344.66;;;17.40
50206;BMP280;36098;48.390;10.856;2024-02-23T06:59:58;94356.66;;;17.41
50206;BMP280;36098;48.390;10.856;2024-02-23T07:02:23;94353.28;;;17.41
50206;BMP280;36098;48.390;10.856;2024-02-23T07:04:48;94359.28;;;17.41
50206;BMP280;36098;48.390;10.856;2024-02-23T07:07:14;94377.53;;;17.41
50206;BMP280;36098;48.390;10.856;2024-02-23T07:09:39;94376.78;;;17.41
50206;BMP280;36098;48.390;10.856;2024-02-23T07:12:05;94389.81;;;17.41
50206;BMP280;36098;48.390;10.856;2024-02-23T07:14:30;94380.75;;;17.28
50206;BMP280;36098;48.390;10.856;2024-02-23T07:16:56;94384.44;;;16.79
50206;BMP280;36098;48.390;10.856;2024-02-23T07:19:21;94383.50;;;17.03
50206;BMP280;36098;48.390;10.856;2024-02-23T07:21:47;94385.78;;;17.15
50206;BMP280;36098;48.390;10.856;2024-02-23T07:24:13;94385.47;;;17.21
50206;BMP280;36098;48.390;10.856;2024-02-23T07:26:38;94388.59;;;17.23
50206;BMP280;36098;48.390;10.856;2024-02-23T07:29:04;94384.38;;;17.27
50206;BMP280;36098;48.390;10.856;2024-02-23T07:31:29;94381.00;;;17.27
50206;BMP280;36098;48.390;10.856;2024-02-23T07:33:54;94396.41;;;17.28
50206;BMP280;36098;48.390;10.856;2024-02-23T07:36:19;94391.72;;;17.25
50206;BMP280;36098;48.390;10.856;2024-02-23T07:38:45;94394.06;;;17.27
50206;BMP280;36098;48.390;10.856;2024-02-23T07:41:11;94383.63;;;17.27
50206;BMP280;36098;48.390;10.856;2024-02-23T07:43:38;94379.16;;;17.27
50206;BMP280;36098;48.390;10.856;2024-02-23T07:46:03;94377.59;;;17.26
50206;BMP280;36098;48.390;10.856;2024-02-23T07:48:30;94372.41;;;17.26
50206;BMP280;36098;48.390;10.856;2024-02-23T07:50:55;94365.63;;;17.25
50206;BMP280;36098;48.390;10.856;2024-02-23T07:53:21;94376.06;;;17.25
50206;BMP280;36098;48.390;10.856;2024-02-23T07:55:46;94376.06;;;17.25
50206;BMP280;36098;48.390;10.856;2024-02-23T07:58:12;94375.28;;;17.25
50206;BMP280;36098;48.390;10.856;2024-02-23T08:00:37;94376.84;;;17.26
50206;BMP280;36098;48.390;10.856;2024-02-23T08:03:04;94365.63;;;17.25
50206;BMP280;36098;48.390;10.856;2024-02-23T08:05:29;94366.66;;;17.24
50206;BMP280;36098;48.390;10.856;2024-02-23T08:07:54;94365.13;;;17.23
50206;BMP280;36098;48.390;10.856;2024-02-23T08:10:20;94381.56;;;17.24
50206;BMP280;36098;48.390;10.856;2024-02-23T08:12:46;94393.81;;;17.23
50206;BMP280;36098;48.390;10.856;2024-02-23T08:15:12;94405.03;;;17.24
50206;BMP280;36098;48.390;10.856;2024-02-23T08:17:37;94398.25;;;17.23
50206;BMP280;36098;48.390;10.856;2024-02-23T08:20:02;94400.88;;;17.23
50206;BMP280;36098;48.390;10.856;2024-02-23T08:22:29;94402.69;;;17.22
50206;BMP280;36098;48.390;10.856;2024-02-23T08:24:54;94412.34;;;17.22
50206;BMP280;36098;48.390;10.856;2024-02-23T08:27:19;94411.56;;;17.21
50206;BMP280;36098;48.390;10.856;2024-02-23T08:29:44;94402.19;;;17.20
50206;BMP280;36098;48.390;10.856;2024-02-23T08:32:10;94403.22;;;17.19
50206;BMP280;36098;48.390;10.856;2024-02-23T08:34:35;94405.84;;;17.19
50206;BMP280;36098;48.390;10.856;2024-02-23T08:37:01;94411.84;;;17.20
50206;BMP280;36098;48.390;10.856;2024-02-23T08:39:27;94411.31;;;17.18
50206;BMP280;36098;48.390;10.856;2024-02-23T08:41:54;94415.78;;;17.17
50206;BMP280;36098;48.390;10.856;2024-02-23T08:44:20;94438.97;;;17.19
50206;BMP280;36098;48.390;10.856;2024-02-23T08:46:45;94437.41;;;17.18
50206;BMP280;36098;48.390;10.856;2024-02-23T08:49:11;94431.97;;;17.14
50206;BMP280;36098;48.390;10.856;2024-02-23T08:51:36;94428.31;;;17.15
50206;BMP280;36098;48.390;10.856;2024-02-23T08:54:02;94429.84;;;17.16
50206;BMP280;36098;48.390;10.856;2024-02-23T08:56:30;94429.06;;;17.16
50206;BMP280;36098;48.390;10.856;2024-02-23T08:58:55;94423.09;;;17.15
50206;BMP280;36098;48.390;10.856;2024-02-23T09:01:20;94425.94;;;17.14
50206;BMP280;36098;48.390;10.856;2024-02-23T09:03:45;94429.59;;;17.13
50206;BMP280;36098;48.390;10.856;2024-02-23T09:06:11;94425.72;;;17.10
50206;BMP280;36098;48.390;10.856;2024-02-23T09:08:36;94426.50;;;17.11
50206;BMP280;36098;48.390;10.856;2024-02-23T09:11:01;94442.94;;;17.11
50206;BMP280;36098;48.390;10.856;2024-02-23T09:13:27;94452.31;;;17.12
50206;BMP280;36098;48.390;10.856;2024-02-23T09:15:54;94450.75;;;17.11
50206;BMP280;36098;48.390;10.856;2024-02-23T09:18:20;94448.41;;;17.10
50206;BMP280;36098;48.390;10.856;2024-02-23T09:20:45;94435.38;;;17.10
50206;BMP280;36098;48.390;10.856;2024-02-23T09:23:10;94422.06;;;17.06
50206;BMP280;36098;48.390;10.856;2024-02-23T09:25:37;94421.81;;;17.08
50206;BMP280;36098;48.390;10.856;2024-02-23T09:28:03;94439.28;;;17.07
50206;BMP280;36098;48.390;10.856;2024-02-23T09:30:28;94428.34;;;17.05
50206;BMP280;36098;48.390;10.856;2024-02-23T09:32:53;94435.13;;;17.06
50206;BMP280;36098;48.390;10.856;2024-02-23T09:35:19;94436.97;;;17.06
50206;BMP280;36098;48.390;10.856;2024-02-23T09:37:45;94447.66;;;17.04
50206;BMP280;36098;48.390;10.856;2024-02-23T09:40:10;94443.22;;;17.05
50206;BMP280;36098;48.390;10.856;2024-02-23T09:42:36;94449.22;;;17.05
50206;BMP280;36098;48.390;10.856;2024-02-23T09:45:06;94447.66;;;17.04
50206;BMP280;36098;48.390;10.856;2024-02-23T09:47:32;94437.50;;;17.03
50206;BMP280;36098;48.390;10.856;2024-02-23T09:49:58;94447.66;;;17.04
50206;BMP280;36098;48.390;10.856;2024-02-23T09:52:25;94446.09;;;17.03
50206;BMP280;36098;48.390;10.856;2024-02-23T09:54:54;94454.97;;;17.02
50206;BMP280;36098;48.390;10.856;2024-02-23T09:57:20;94454.97;;;17.02
50206;BMP280;36098;48.390;10.856;2024-02-23T09:59:48;94450.03;;;17.01
50206;BMP280;36098;48.390;10.856;2024-02-23T10:02:17;94451.84;;;17.00
50206;BMP280;36098;48.390;10.856;2024-02-23T10:04:43;94456.00;;;17.01
50206;BMP280;36098;48.390;10.856;2024-02-23T10:07:09;94460.47;;;17.01
50206;BMP280;36098;48.390;10.856;2024-02-23T10:09:35;94451.34;;;16.98
50206;BMP280;36098;48.390;10.856;2024-02-23T10:12:03;94453.16;;;16.98
50206;BMP280;36098;48.390;10.856;2024-02-23T10:14:29;94459.97;;;16.99
50206;BMP280;36098;48.390;10.856;2024-02-23T10:16:54;94465.94;;;16.99
50206;BMP280;36098;48.390;10.856;2024-02-23T10:19:21;94459.16;;;16.98
50206;BMP280;36098;48.390;10.856;2024-02-23T10:21:46;94460.22;;;16.97
50206;BMP280;36098;48.390;10.856;2024-02-23T10:24:12;94462.81;;;16.97
50206;BMP280;36098;48.390;10.856;2024-02-23T10:26:37;94451.09;;;16.95
50206;BMP280;36098;48.390;10.856;2024-02-23T10:29:02;94449.53;;;16.94
50206;BMP280;36098;48.390;10.856;2024-02-23T10:31:31;94452.66;;;16.96
50206;BMP280;36098;48.390;10.856;2024-02-23T10:33:59;94451.88;;;16.95
50206;BMP280;36098;48.390;10.856;2024-02-23T10:36:29;94452.94;;;16.94
50206;BMP280;36098;48.390;10.856;2024-02-23T10:38:59;94446.66;;;16.95
50206;BMP280;36098;48.390;10.856;2024-02-23T10:41:29;94448.47;;;16.95
50206;BMP280;36098;48.390;10.856;2024-02-23T10:43:57;94448.47;;;16.95
50206;BMP280;36098;48.390;10.856;2024-02-23T10:46:25;94443.56;;;16.93
50206;BMP280;36098;48.390;10.856;2024-02-23T10:48:50;94446.16;;;16.93
50206;BMP280;36098;48.390;10.856;2024-02-23T10:51:16;94440.69;;;16.90
50206;BMP280;36098;48.390;10.856;2024-02-23T10:53:42;94441.19;;;16.92
50206;BMP280;36098;48.390;10.856;2024-02-23T10:56:10;94442.00;;;16.92
50206;BMP280;36098;48.390;10.856;2024-02-23T10:58:35;94446.16;;;16.93
50206;BMP280;36098;48.390;10.856;2024-02-23T11:01:06;94455.03;;;16.92
50206;BMP280;36098;48.390;10.856;2024-02-23T11:03:34;94455.78;;;16.93
50206;BMP280;36098;48.390;10.856;2024-02-23T11:06:00;94461.50;;;16.95
50206;BMP280;36098;48.390;10.856;2024-02-23T11:08:29;94451.88;;;16.95
50206;BMP280;36098;48.390;10.856;2024-02-23T11:10:55;94450.84;;;16.96
50206;BMP280;36098;48.390;10.856;2024-02-23T11:13:36;94446.13;;;16.98
50206;BMP280;36098;48.390;10.856;2024-02-23T11:16:02;94443.25;;;17.00
50206;BMP280;36098;48.390;10.856;2024-02-23T11:18:29;94442.97;;;17.01
50206;BMP280;36098;48.390;10.856;2024-02-23T11:20:55;94436.19;;;17.00
50206;BMP280;36098;48.390;10.856;2024-02-23T11:23:23;94443.47;;;17.03
50206;BMP280;36098;48.390;10.856;2024-02-23T11:26:07;94431.50;;;17.02
50206;BMP280;36098;48.390;10.856;2024-02-23T11:28:42;94435.66;;;17.03
50206;BMP280;36098;48.390;10.856;2024-02-23T11:31:15;94430.44;;;17.03
50206;BMP280;36098;48.390;10.856;2024-02-23T11:33:47;94442.44;;;17.04
50206;BMP280;36098;48.390;10.856;2024-02-23T11:36:22;94436.47;;;17.04
50206;BMP280;36098;48.390;10.856;2024-02-23T11:38:47;94432.00;;;17.04
50206;BMP280;36098;48.390;10.856;2024-02-23T11:41:12;94434.59;;;17.04
50206;BMP280;36098;48.390;10.856;2024-02-23T11:43:39;94426.78;;;17.04
50206;BMP280;36098;48.390;10.856;2024-02-23T11:46:04;94438.00;;;17.05
50206;BMP280;36098;48.390;10.856;2024-02-23T11:48:31;94429.13;;;17.06
50206;BMP280;36098;48.390;10.856;2024-02-23T11:50:57;94425.72;;;17.05
50206;BMP280;36098;48.390;10.856;2024-02-23T11:53:22;94431.47;;;17.07
50206;BMP280;36098;48.390;10.856;2024-02-23T11:55:50;94427.28;;;17.06
50206;BMP280;36098;48.390;10.856;2024-02-23T11:58:15;94425.72;;;17.05
50206;BMP280;36098;48.390;10.856;2024-02-23T12:00:40;94420.25;;;17.07
50206;BMP280;36098;48.390;10.856;2024-02-23T12:03:06;94416.88;;;17.06
50206;BMP280;36098;48.390;10.856;2024-02-23T12:05:32;94411.66;;;17.06
50206;BMP280;36098;48.390;10.856;2024-02-23T12:07:58;94415.06;;;17.07
50206;BMP280;36098;48.390;10.856;2024-02-23T12:10:23;94405.94;;;17.04
50206;BMP280;36098;48.390;10.856;2024-02-23T12:12:50;94399.66;;;17.05
50206;BMP280;36098;48.390;10.856;2024-02-23T12:15:15;94408.53;;;17.04
50206;BMP280;36098;48.390;10.856;2024-02-23T12:17:50;94391.84;;;17.05
50206;BMP280;36098;48.390;10.856;2024-02-23T12:20:15;94393.41;;;17.06
50206;BMP280;36098;48.390;10.856;2024-02-23T12:22:41;94402.00;;;17.07
50206;BMP280;36098;48.390;10.856;2024-02-23T12:25:07;94395.50;;;17.04
50206;BMP280;36098;48.390;10.856;2024-02-23T12:27:32;94399.16;;;17.03
50206;BMP280;36098;48.390;10.856;2024-02-23T12:29:57;94400.44;;;17.06
50206;BMP280;36098;48.390;10.856;2024-02-23T12:32:24;94406.97;;;17.03
50206;BMP280;36098;48.390;10.856;2024-02-23T12:34:50;94407.47;;;17.05
50206;BMP280;36098;48.390;10.856;2024-02-23T12:37:15;94401.75;;;17.03
50206;BMP280;36098;48.390;10.856;2024-02-23T12:39:44;94405.16;;;17.04
50206;BMP280;36098;48.390;10.856;2024-02-23T12:42:10;94403.59;;;17.03
50206;BMP280;36098;48.390;10.856;2024-02-23T12:44:35;94408.53;;;17.04
50206;BMP280;36098;48.390;10.856;2024-02-23T12:47:01;94403.31;;;17.04
50206;BMP280;36098;48.390;10.856;2024-02-23T12:49:26;94404.38;;;17.03
50206;BMP280;36098;48.390;10.856;2024-02-23T12:51:51;94412.19;;;17.03
50206;BMP280;36098;48.390;10.856;2024-02-23T12:54:17;94414.78;;;17.03
50206;BMP280;36098;48.390;10.856;2024-02-23T12:56:42;94420.00;;;17.03
50206;BMP280;36098;48.390;10.856;2024-02-23T12:59:08;94415.59;;;17.04
50206;BMP280;36098;48.390;10.856;2024-02-23T13:01:34;94409.06;;;17.01
50206;BMP280;36098;48.390;10.856;2024-02-23T13:04:02;94414.78;;;17.03
50206;BMP280;36098;48.390;10.856;2024-02-23T13:06:28;94408.81;;;17.03
50206;BMP280;36098;48.390;10.856;2024-02-23T13:08:53;94403.59;;;17.03
50206;BMP280;36098;48.390;10.856;2024-02-23T13:11:18;94392.94;;;16.99
50206;BMP280;36098;48.390;10.856;2024-02-23T13:13:44;94389.28;;;17.00
50206;BMP280;36098;48.390;10.856;2024-02-23T13:16:09;94386.41;;;17.02
50206;BMP280;36098;48.390;10.856;2024-02-23T13:18:35;94396.03;;;17.01
50206;BMP280;36098;48.390;10.856;2024-02-23T13:21:00;94377.28;;;16.99
50206;BMP280;36098;48.390;10.856;2024-02-23T13:23:25;94377.28;;;16.99
50206;BMP280;36098;48.390;10.856;2024-02-23T13:25:51;94382.50;;;16.99
50206;BMP280;36098;48.390;10.856;2024-02-23T13:28:16;94388.75;;;16.98
50206;BMP280;36098;48.390;10.856;2024-02-23T13:30:41;94392.16;;;16.99
50206;BMP280;36098;48.390;10.856;2024-02-23T13:33:07;94391.88;;;17.00
50206;BMP280;36098;48.390;10.856;2024-02-23T13:35:33;94389.56;;;16.99
50206;BMP280;36098;48.390;10.856;2024-02-23T13:37:59;94392.16;;;16.99
50206;BMP280;36098;48.390;10.856;2024-02-23T13:40:25;94386.94;;;16.99
50206;BMP280;36098;48.390;10.856;2024-02-23T13:42:50;94380.44;;;16.96
50206;BMP280;36098;48.390;10.856;2024-02-23T13:45:17;94361.91;;;16.98
50206;BMP280;36098;48.390;10.856;2024-02-23T13:47:57;94347.31;;;16.97
50206;BMP280;36098;48.390;10.856;2024-02-23T13:50:23;94349.66;;;16.98